createdAt,value
2022-08-28T00:00:40.616Z,4.40
2022-08-28T00:03:10.716Z,4.75
2022-08-28T00:05:40.037Z,4.72
2022-08-28T00:08:10.331Z,4.78
2022-08-28T00:10:40.455Z,5.00
2022-08-28T00:13:15.762Z,4.68
2022-08-28T00:15:44.039Z,5.57
2022-08-28T00:18:12.906Z,5.68
2022-08-28T00:20:41.279Z,4.88
2022-08-28T00:23:09.481Z,5.37
2022-08-28T00:25:37.657Z,5.10
2022-08-28T00:28:10.670Z,4.90
2022-08-28T00:30:51.966Z,5.20
2022-08-28T00:33:24.683Z,5.05
2022-08-28T00:35:54.475Z,5.27
2022-08-28T00:38:26.569Z,5.40
2022-08-28T00:40:59.282Z,5.60
2022-08-28T00:43:38.790Z,5.47
2022-08-28T00:46:18.266Z,5.95
2022-08-28T00:48:46.267Z,6.23
2022-08-28T00:51:37.124Z,6.28
2022-08-28T00:54:07.959Z,5.65
2022-08-28T00:56:40.252Z,6.40
2022-08-28T00:59:12.042Z,5.97
2022-08-28T01:01:40.260Z,6.10
2022-08-28T01:04:08.430Z,5.80
2022-08-28T01:06:37.558Z,5.93
2022-08-28T01:09:06.709Z,7.03
2022-08-28T01:11:34.932Z,6.05
2022-08-28T01:14:05.789Z,6.10
2022-08-28T01:16:34.481Z,6.18
2022-08-28T01:19:10.244Z,5.90
2022-08-28T01:21:55.312Z,6.10
2022-08-28T01:24:23.481Z,5.93
2022-08-28T01:26:51.791Z,5.77
2022-08-28T01:29:21.141Z,6.15
2022-08-28T01:31:49.243Z,6.20
2022-08-28T01:34:17.446Z,6.00
2022-08-28T01:36:45.127Z,5.95
2022-08-28T01:39:17.704Z,6.40
2022-08-28T01:41:48.968Z,6.15
2022-08-28T01:44:18.905Z,5.95
2022-08-28T01:46:47.128Z,6.10
2022-08-28T01:49:15.031Z,5.90
2022-08-28T01:51:43.834Z,5.93
2022-08-28T01:54:12.864Z,6.00
2022-08-28T01:56:44.407Z,6.35
2022-08-28T01:59:13.462Z,5.80
2022-08-28T02:01:42.868Z,6.68
2022-08-28T02:04:12.021Z,6.43
2022-08-28T02:06:39.821Z,6.28
2022-08-28T02:09:14.317Z,6.10
2022-08-28T02:11:45.392Z,6.47
2022-08-28T02:14:15.957Z,6.65
2022-08-28T02:16:44.255Z,6.97
2022-08-28T02:19:12.478Z,5.78
2022-08-28T02:21:41.095Z,5.78
2022-08-28T02:24:09.637Z,6.32
2022-08-28T02:26:37.488Z,5.82
2022-08-28T02:29:06.279Z,5.77
2022-08-28T02:31:34.103Z,5.90
2022-08-28T02:34:02.415Z,5.45
2022-08-28T02:36:30.569Z,6.00
2022-08-28T02:38:58.975Z,6.40
2022-08-28T02:41:27.027Z,7.40
2022-08-28T02:43:55.269Z,6.78
2022-08-28T02:46:23.863Z,6.00
2022-08-28T02:48:51.811Z,5.90
2022-08-28T02:51:20.473Z,6.25
2022-08-28T02:53:50.881Z,6.53
2022-08-28T02:56:19.135Z,6.70
2022-08-28T02:58:47.247Z,7.15
2022-08-28T03:01:15.512Z,6.00
2022-08-28T03:03:44.003Z,6.50
2022-08-28T03:06:13.256Z,6.20
2022-08-28T03:08:44.320Z,6.35
2022-08-28T03:11:12.475Z,6.70
2022-08-28T03:13:40.892Z,6.90
2022-08-28T03:16:09.337Z,6.95
2022-08-28T03:18:37.361Z,5.43
2022-08-28T03:21:06.617Z,6.35
2022-08-28T03:23:34.851Z,5.93
2022-08-28T03:26:05.397Z,6.72
2022-08-28T03:28:42.507Z,6.72
2022-08-28T03:31:14.353Z,6.83
2022-08-28T03:33:43.192Z,6.80
2022-08-28T03:36:13.339Z,5.88
2022-08-28T03:38:42.241Z,6.57
2022-08-28T03:41:16.207Z,7.03
2022-08-28T03:43:45.023Z,6.63
2022-08-28T03:46:20.159Z,6.22
2022-08-28T03:48:48.065Z,6.78
2022-08-28T03:51:29.355Z,6.32
2022-08-28T03:54:02.015Z,6.70
2022-08-28T03:56:32.158Z,7.17
2022-08-28T03:59:02.190Z,6.63
2022-08-28T04:01:30.258Z,6.13
2022-08-28T04:03:58.753Z,6.30
2022-08-28T04:06:28.330Z,6.30
2022-08-28T04:09:00.101Z,6.80
2022-08-28T04:11:29.153Z,6.57
2022-08-28T04:13:56.916Z,6.30
2022-08-28T04:16:24.886Z,6.35
2022-08-28T04:18:53.430Z,7.00
2022-08-28T04:21:26.315Z,6.67
2022-08-28T04:23:55.538Z,6.50
2022-08-28T04:26:26.428Z,6.60
2022-08-28T04:28:56.084Z,6.30
2022-08-28T04:31:31.750Z,6.88
2022-08-28T04:34:06.348Z,6.53
2022-08-28T04:36:34.923Z,6.47
2022-08-28T04:39:05.533Z,6.43
2022-08-28T04:41:33.458Z,6.78
2022-08-28T04:44:01.838Z,6.38
2022-08-28T04:46:31.137Z,6.50
2022-08-28T04:48:59.879Z,6.30
2022-08-28T04:51:29.143Z,6.00
2022-08-28T04:53:57.973Z,5.88
2022-08-28T04:56:27.011Z,6.10
2022-08-28T04:58:55.313Z,6.13
2022-08-28T05:01:25.153Z,6.15
2022-08-28T05:03:59.633Z,6.40
2022-08-28T05:06:29.586Z,5.95
2022-08-28T05:08:58.946Z,5.80
2022-08-28T05:11:33.617Z,6.90
2022-08-28T05:14:05.200Z,6.25
2022-08-28T05:16:34.911Z,5.85
2022-08-28T05:19:03.901Z,6.53
2022-08-28T05:21:31.950Z,5.93
2022-08-28T05:24:00.311Z,5.50
2022-08-28T05:26:29.714Z,6.18
2022-08-28T05:29:00.283Z,6.03
2022-08-28T05:31:31.049Z,5.82
2022-08-28T05:34:01.923Z,6.25
2022-08-28T05:36:33.255Z,5.90
2022-08-28T05:39:05.201Z,6.28
2022-08-28T05:41:33.863Z,7.43
2022-08-28T05:44:05.414Z,5.60
2022-08-28T05:46:34.919Z,6.80
2022-08-28T05:49:06.598Z,5.93
2022-08-28T05:51:37.504Z,6.50
2022-08-28T05:54:05.982Z,5.85
2022-08-28T05:56:37.908Z,5.90
2022-08-28T05:59:07.278Z,6.22
2022-08-28T06:01:39.325Z,6.80
2022-08-28T06:04:13.031Z,6.57
2022-08-28T06:06:43.671Z,5.97
2022-08-28T06:09:20.143Z,5.68
2022-08-28T06:11:50.050Z,6.47
2022-08-28T06:14:20.859Z,6.90
2022-08-28T06:16:51.280Z,6.45
2022-08-28T06:19:20.854Z,5.93
2022-08-28T06:21:52.778Z,5.75
2022-08-28T06:24:20.898Z,6.25
2022-08-28T06:26:48.556Z,6.37
2022-08-28T06:29:22.092Z,6.13
2022-08-28T06:31:59.804Z,5.80
2022-08-28T06:34:28.550Z,6.13
2022-08-28T06:36:56.733Z,5.80
2022-08-28T06:39:24.770Z,6.67
2022-08-28T06:41:52.775Z,5.85
2022-08-28T06:44:22.184Z,5.75
2022-08-28T06:46:53.739Z,5.60
2022-08-28T06:49:22.960Z,5.40
2022-08-28T06:51:50.799Z,5.80
2022-08-28T06:54:22.735Z,6.32
2022-08-28T06:56:52.705Z,5.60
2022-08-28T06:59:20.816Z,5.80
2022-08-28T07:01:48.928Z,6.20
2022-08-28T07:04:17.376Z,5.83
2022-08-28T07:06:47.045Z,5.68
2022-08-28T07:09:15.754Z,5.50
2022-08-28T07:11:49.388Z,5.80
2022-08-28T07:14:17.507Z,5.50
2022-08-28T07:16:46.262Z,5.40
2022-08-28T07:19:14.882Z,5.80
2022-08-28T07:21:44.978Z,5.20
2022-08-28T07:24:15.370Z,5.68
2022-08-28T07:26:45.458Z,6.20
2022-08-28T07:29:14.761Z,5.43
2022-08-28T07:31:49.410Z,5.65
2022-08-28T07:34:20.663Z,5.68
2022-08-28T07:36:52.156Z,5.43
2022-08-28T07:39:21.542Z,5.38
2022-08-28T07:41:50.562Z,5.50
2022-08-28T07:44:37.358Z,5.85
2022-08-28T07:47:08.790Z,5.28
2022-08-28T07:49:37.362Z,6.07
2022-08-28T07:52:06.971Z,5.75
2022-08-28T07:54:36.334Z,6.03
2022-08-28T07:57:05.985Z,5.13
2022-08-28T07:59:36.602Z,5.45
2022-08-28T08:02:06.335Z,5.03
2022-08-28T08:04:34.052Z,5.80
2022-08-28T08:07:03.696Z,5.23
2022-08-28T08:09:32.374Z,6.25
2022-08-28T08:12:00.507Z,5.70
2022-08-28T08:14:28.723Z,6.47
2022-08-28T08:16:56.808Z,5.70
2022-08-28T08:19:24.691Z,5.70
2022-08-28T08:21:55.042Z,6.78
2022-08-28T08:24:30.768Z,5.72
2022-08-28T08:27:02.231Z,5.65
2022-08-28T08:29:36.126Z,6.00
2022-08-28T08:32:08.836Z,5.90
2022-08-28T08:34:41.643Z,5.50
2022-08-28T08:37:10.786Z,5.53
2022-08-28T08:39:45.155Z,5.88
2022-08-28T08:42:25.981Z,5.70
2022-08-28T08:44:57.148Z,6.10
2022-08-28T08:47:40.576Z,5.28
2022-08-28T08:50:17.275Z,5.53
2022-08-28T08:52:55.136Z,5.88
2022-08-28T08:55:31.739Z,5.45
2022-08-28T08:58:07.990Z,7.27
2022-08-28T09:01:01.524Z,7.35
2022-08-28T09:03:54.070Z,5.20
2022-08-28T09:06:37.846Z,5.57
2022-08-28T09:09:21.457Z,5.60
2022-08-28T09:11:59.038Z,5.63
2022-08-28T09:15:11.576Z,5.55
2022-08-28T09:17:46.695Z,5.60
2022-08-28T09:20:20.493Z,5.50
2022-08-28T09:22:58.472Z,5.30
2022-08-28T09:25:44.785Z,4.73
2022-08-28T09:28:18.311Z,5.50
2022-08-28T09:30:54.879Z,5.38
2022-08-28T09:33:37.191Z,4.80
2022-08-28T09:36:35.471Z,5.22
2022-08-28T09:39:20.361Z,4.70
2022-08-28T09:42:42.095Z,5.03
2022-08-28T09:45:18.788Z,4.85
2022-08-28T09:47:54.733Z,4.97
2022-08-28T09:50:30.794Z,4.78
2022-08-28T09:53:14.634Z,4.40
2022-08-28T09:56:00.046Z,4.90
2022-08-28T09:58:34.397Z,4.35
2022-08-28T10:01:32.758Z,4.30
2022-08-28T10:04:25.291Z,4.03
2022-08-28T10:07:04.401Z,4.57
2022-08-28T10:09:52.901Z,4.40
2022-08-28T10:12:42.505Z,4.50
2022-08-28T10:15:27.215Z,5.05
2022-08-28T10:18:19.947Z,4.68
2022-08-28T10:21:01.710Z,4.40
2022-08-28T10:23:47.030Z,4.18
2022-08-28T10:26:35.024Z,4.60
2022-08-28T10:29:19.791Z,4.57
2022-08-28T10:32:02.182Z,4.40
2022-08-28T10:34:39.515Z,4.60
2022-08-28T10:37:31.007Z,4.97
2022-08-28T10:40:04.559Z,4.00
2022-08-28T10:42:42.686Z,3.75
2022-08-28T10:45:18.805Z,4.68
2022-08-28T10:48:28.809Z,4.00
2022-08-28T10:51:05.851Z,4.68
2022-08-28T10:53:45.205Z,4.10
2022-08-28T10:56:40.661Z,4.70
2022-08-28T10:59:09.090Z,4.75
2022-08-28T11:01:41.001Z,4.70
2022-08-28T11:04:25.405Z,4.03
2022-08-28T11:06:59.194Z,4.22
2022-08-28T11:09:36.759Z,4.75
2022-08-28T11:12:29.105Z,4.82
2022-08-28T11:15:06.149Z,5.07
2022-08-28T11:17:48.157Z,4.07
2022-08-28T11:20:28.892Z,4.20
2022-08-28T11:23:20.817Z,4.80
2022-08-28T11:26:07.126Z,4.47
2022-08-28T11:28:35.669Z,4.57
2022-08-28T11:31:06.796Z,4.13
2022-08-28T11:33:41.221Z,4.82
2022-08-28T11:36:20.003Z,4.40
2022-08-28T11:38:54.178Z,4.72
2022-08-28T11:41:27.777Z,4.20
2022-08-28T11:44:13.566Z,4.13
2022-08-28T11:46:44.279Z,3.60
2022-08-28T11:49:24.930Z,3.80
2022-08-28T11:52:16.442Z,4.05
2022-08-28T11:54:54.189Z,4.00
2022-08-28T11:57:22.280Z,3.90
2022-08-28T12:00:06.898Z,4.13
2022-08-28T12:02:41.414Z,3.53
2022-08-28T12:05:33.627Z,4.40
2022-08-28T12:08:05.011Z,4.27
2022-08-28T12:10:33.135Z,4.57
2022-08-28T12:13:04.276Z,3.75
2022-08-28T12:15:32.957Z,4.05
2022-08-28T12:18:05.955Z,4.28
2022-08-28T12:20:52.390Z,4.30
2022-08-28T12:23:43.256Z,4.57
2022-08-28T12:26:17.599Z,4.57
2022-08-28T12:29:06.145Z,3.97
2022-08-28T12:32:08.999Z,5.05
2022-08-28T12:34:46.156Z,4.37
2022-08-28T12:37:31.447Z,4.00
2022-08-28T12:40:19.749Z,4.10
2022-08-28T12:42:55.407Z,4.00
2022-08-28T12:45:52.208Z,4.45
2022-08-28T12:49:05.689Z,4.60
2022-08-28T12:51:36.207Z,4.45
2022-08-28T12:54:07.493Z,4.72
2022-08-28T12:56:38.539Z,4.13
2022-08-28T12:59:27.446Z,4.45
2022-08-28T13:02:22.056Z,4.20
2022-08-28T13:04:55.694Z,4.72
2022-08-28T13:07:34.609Z,4.50
2022-08-28T13:10:24.346Z,3.92
2022-08-28T13:13:05.463Z,4.05
2022-08-28T13:15:52.164Z,3.90
2022-08-28T13:18:50.666Z,4.25
2022-08-28T13:21:33.166Z,4.47
2022-08-28T13:24:23.215Z,4.00
2022-08-28T13:27:01.328Z,4.10
2022-08-28T13:29:29.718Z,3.90
2022-08-28T13:32:04.804Z,3.92
2022-08-28T13:34:37.545Z,4.20
2022-08-28T13:37:14.921Z,3.72
2022-08-28T13:39:50.032Z,3.80
2022-08-28T13:42:19.015Z,4.00
2022-08-28T13:44:49.720Z,4.28
2022-08-28T13:47:18.066Z,3.72
2022-08-28T13:49:46.861Z,4.15
2022-08-28T13:52:15.225Z,4.30
2022-08-28T13:54:45.697Z,5.00
2022-08-28T13:57:15.010Z,4.32
2022-08-28T13:59:42.726Z,3.78
2022-08-28T14:02:33.069Z,4.03
2022-08-28T14:05:01.561Z,3.30
2022-08-28T14:07:29.686Z,4.10
2022-08-28T14:09:58.927Z,3.25
2022-08-28T14:12:33.241Z,3.58
2022-08-28T14:15:02.616Z,3.20
2022-08-28T14:17:30.705Z,2.97
2022-08-28T14:20:00.594Z,3.33
2022-08-28T14:22:28.840Z,3.30
2022-08-28T14:24:56.951Z,3.88
2022-08-28T14:27:24.994Z,3.72
2022-08-28T14:29:54.093Z,3.90
2022-08-28T14:32:23.396Z,3.90
2022-08-28T14:34:51.931Z,3.58
2022-08-28T14:37:20.876Z,3.70
2022-08-28T14:39:48.815Z,3.53
2022-08-28T14:42:17.667Z,3.80
2022-08-28T14:44:46.146Z,4.10
2022-08-28T14:47:14.027Z,4.00
2022-08-28T14:49:42.462Z,3.40
2022-08-28T14:52:10.855Z,4.05
2022-08-28T14:54:39.885Z,3.42
2022-08-28T14:57:07.959Z,3.77
2022-08-28T14:59:36.628Z,4.00
2022-08-28T15:02:04.663Z,3.47
2022-08-28T15:04:35.608Z,3.83
2022-08-28T15:07:08.014Z,4.15
2022-08-28T15:09:38.651Z,4.17
2022-08-28T15:12:07.367Z,4.13
2022-08-28T15:14:36.339Z,3.75
2022-08-28T15:17:05.132Z,4.03
2022-08-28T15:19:33.301Z,5.13
2022-08-28T15:22:01.976Z,4.73
2022-08-28T15:24:35.322Z,4.30
2022-08-28T15:27:06.311Z,4.75
2022-08-28T15:29:34.536Z,4.70
2022-08-28T15:32:04.054Z,4.63
2022-08-28T15:34:32.350Z,4.37
2022-08-28T15:37:00.572Z,4.35
2022-08-28T15:39:48.174Z,4.50
2022-08-28T15:42:17.640Z,4.53
2022-08-28T15:44:46.750Z,4.63
2022-08-28T15:47:16.484Z,5.13
2022-08-28T15:49:49.866Z,4.80
2022-08-28T15:52:20.877Z,4.32
2022-08-28T15:54:50.013Z,4.72
2022-08-28T15:57:19.780Z,4.32
2022-08-28T15:59:48.794Z,4.43
2022-08-28T16:02:21.910Z,4.70
2022-08-28T16:04:50.059Z,4.20
2022-08-28T16:07:19.958Z,4.18
2022-08-28T16:09:48.968Z,3.90
2022-08-28T16:12:17.437Z,4.57
2022-08-28T16:14:45.480Z,4.07
2022-08-28T16:17:13.511Z,4.32
2022-08-28T16:19:42.666Z,4.60
2022-08-28T16:22:16.172Z,4.10
2022-08-28T16:24:45.692Z,4.40
2022-08-28T16:27:15.711Z,3.67
2022-08-28T16:29:45.379Z,4.60
2022-08-28T16:32:13.343Z,5.63
2022-08-28T16:34:44.755Z,6.72
2022-08-28T16:37:14.345Z,5.70
2022-08-28T16:39:49.848Z,7.78
2022-08-28T16:42:18.712Z,6.72
2022-08-28T16:44:47.200Z,6.18
2022-08-28T16:47:15.408Z,6.28
2022-08-28T16:49:43.478Z,4.43
2022-08-28T16:52:12.280Z,4.55
2022-08-28T16:54:47.471Z,4.60
2022-08-28T16:57:18.032Z,5.22
2022-08-28T16:59:46.444Z,4.30
2022-08-28T17:02:15.531Z,5.13
2022-08-28T17:04:44.856Z,4.40
2022-08-28T17:07:12.550Z,4.75
2022-08-28T17:09:40.826Z,4.60
2022-08-28T17:12:09.028Z,4.20
2022-08-28T17:14:40.079Z,4.90
2022-08-28T17:17:07.847Z,4.97
2022-08-28T17:19:37.622Z,5.60
2022-08-28T17:22:27.387Z,3.90
2022-08-28T17:24:55.973Z,4.13
2022-08-28T17:27:23.848Z,4.80
2022-08-28T17:29:52.996Z,4.82
2022-08-28T17:32:21.560Z,5.20
2022-08-28T17:34:49.870Z,4.53
2022-08-28T17:37:18.027Z,4.18
2022-08-28T17:39:46.417Z,4.50
2022-08-28T17:42:14.284Z,4.72
2022-08-28T17:44:43.044Z,4.95
2022-08-28T17:47:12.330Z,4.28
2022-08-28T17:49:40.653Z,4.43
2022-08-28T17:52:08.350Z,4.37
2022-08-28T17:54:36.499Z,4.35
2022-08-28T17:57:04.357Z,4.32
2022-08-28T17:59:33.105Z,4.40
2022-08-28T18:02:01.721Z,4.10
2022-08-28T18:04:29.699Z,4.37
2022-08-28T18:06:57.890Z,4.03
2022-08-28T18:09:26.123Z,4.70
2022-08-28T18:11:54.289Z,5.13
2022-08-28T18:14:22.159Z,4.88
2022-08-28T18:16:50.782Z,4.47
2022-08-28T18:19:18.926Z,4.80
2022-08-28T18:21:46.734Z,4.20
2022-08-28T18:24:15.066Z,4.75
2022-08-28T18:26:44.243Z,4.30
2022-08-28T18:29:14.363Z,4.30
2022-08-28T18:31:43.507Z,4.35
2022-08-28T18:34:11.806Z,4.50
2022-08-28T18:36:42.831Z,4.40
2022-08-28T18:39:12.011Z,4.28
2022-08-28T18:41:43.957Z,3.87
2022-08-28T18:44:14.858Z,4.25
2022-08-28T18:46:44.279Z,4.13
2022-08-28T18:49:12.761Z,4.07
2022-08-28T18:51:43.808Z,5.00
2022-08-28T18:54:16.462Z,4.53
2022-08-28T18:56:45.895Z,4.20
2022-08-28T18:59:16.134Z,4.32
2022-08-28T19:01:44.801Z,5.45
2022-08-28T19:04:12.797Z,4.43
2022-08-28T19:06:41.408Z,5.90
2022-08-28T19:09:09.564Z,4.65
2022-08-28T19:11:48.522Z,4.40
2022-08-28T19:14:17.721Z,4.90
2022-08-28T19:16:46.458Z,4.20
2022-08-28T19:19:15.693Z,4.67
2022-08-28T19:21:44.527Z,4.50
2022-08-28T19:24:12.370Z,4.88
2022-08-28T19:26:40.279Z,5.70
2022-08-28T19:29:08.901Z,5.30
2022-08-28T19:31:39.639Z,5.73
2022-08-28T19:34:11.567Z,5.43
2022-08-28T19:36:42.401Z,4.82
2022-08-28T19:39:12.460Z,4.93
2022-08-28T19:41:42.005Z,5.05
2022-08-28T19:44:10.067Z,5.10
2022-08-28T19:46:40.022Z,4.70
2022-08-28T19:49:10.080Z,4.57
2022-08-28T19:51:39.221Z,4.82
2022-08-28T19:54:11.377Z,5.63
2022-08-28T19:56:40.313Z,4.90
2022-08-28T19:59:09.215Z,4.93
2022-08-28T20:01:41.014Z,4.60
2022-08-28T20:04:09.884Z,4.85
2022-08-28T20:06:37.696Z,5.05
2022-08-28T20:09:08.392Z,5.30
2022-08-28T20:11:38.934Z,4.88
2022-08-28T20:14:06.987Z,5.32
2022-08-28T20:16:39.363Z,5.13
2022-08-28T20:19:10.740Z,5.35
2022-08-28T20:21:41.227Z,5.33
2022-08-28T20:24:13.193Z,4.95
2022-08-28T20:26:41.210Z,5.47
2022-08-28T20:29:10.285Z,5.13
2022-08-28T20:31:40.779Z,5.20
2022-08-28T20:34:10.193Z,5.17
2022-08-28T20:36:38.230Z,5.43
2022-08-28T20:39:09.608Z,4.85
2022-08-28T20:41:39.800Z,5.15
2022-08-28T20:44:10.122Z,5.10
2022-08-28T20:46:41.333Z,4.80
2022-08-28T20:49:11.872Z,4.85
2022-08-28T20:51:53.194Z,5.00
2022-08-28T20:54:24.419Z,4.90
2022-08-28T20:56:52.894Z,4.72
2022-08-28T20:59:21.327Z,5.10
2022-08-28T21:01:51.084Z,5.38
2022-08-28T21:04:19.780Z,5.25
2022-08-28T21:06:48.009Z,4.72
2022-08-28T21:09:17.309Z,5.13
2022-08-28T21:11:45.741Z,5.00
2022-08-28T21:14:14.383Z,4.88
2022-08-28T21:16:43.054Z,4.82
2022-08-28T21:19:16.379Z,5.32
2022-08-28T21:21:45.702Z,5.30
2022-08-28T21:24:15.985Z,4.90
2022-08-28T21:26:46.711Z,5.10
2022-08-28T21:29:16.248Z,5.10
2022-08-28T21:31:45.363Z,4.93
2022-08-28T21:34:13.180Z,5.07
2022-08-28T21:36:49.552Z,5.10
2022-08-28T21:39:20.902Z,5.18
2022-08-28T21:41:49.834Z,5.05
2022-08-28T21:44:17.974Z,5.07
2022-08-28T21:46:46.060Z,5.10
2022-08-28T21:49:14.086Z,5.07
2022-08-28T21:51:41.925Z,5.63
2022-08-28T21:54:09.696Z,5.28
2022-08-28T21:56:37.931Z,5.13
2022-08-28T21:59:05.651Z,5.13
2022-08-28T22:01:33.778Z,4.83
2022-08-28T22:04:01.912Z,5.63
2022-08-28T22:06:30.035Z,5.75
2022-08-28T22:08:58.614Z,5.68
2022-08-28T22:11:27.186Z,5.45
2022-08-28T22:13:57.121Z,5.67
2022-08-28T22:16:26.861Z,5.80
2022-08-28T22:18:55.166Z,6.30
2022-08-28T22:21:44.824Z,5.03
2022-08-28T22:24:13.835Z,4.93
2022-08-28T22:26:43.198Z,5.00
2022-08-28T22:29:11.674Z,4.85
2022-08-28T22:31:45.562Z,5.55
2022-08-28T22:34:14.573Z,5.30
2022-08-28T22:36:42.598Z,5.60
2022-08-28T22:39:10.533Z,5.23
2022-08-28T22:41:39.006Z,5.63
2022-08-28T22:44:08.723Z,6.43
2022-08-28T22:46:36.870Z,5.45
2022-08-28T22:49:05.631Z,5.60
2022-08-28T22:51:34.966Z,5.57
2022-08-28T22:54:02.887Z,5.60
2022-08-28T22:56:30.772Z,5.78
2022-08-28T22:58:59.966Z,5.60
2022-08-28T23:01:28.258Z,5.38
2022-08-28T23:03:56.271Z,5.57
2022-08-28T23:06:24.507Z,5.70
2022-08-28T23:08:52.146Z,5.20
2022-08-28T23:11:21.700Z,5.20
2022-08-28T23:13:50.717Z,5.53
2022-08-28T23:16:24.217Z,5.83
2022-08-28T23:19:08.881Z,5.57
2022-08-28T23:21:39.229Z,5.53
2022-08-28T23:24:13.090Z,6.20
2022-08-28T23:26:41.841Z,6.10
2022-08-28T23:29:10.744Z,5.60
2022-08-28T23:31:39.546Z,5.80
2022-08-28T23:34:07.361Z,5.75
2022-08-28T23:36:37.074Z,6.20
2022-08-28T23:39:07.834Z,6.30
2022-08-28T23:41:37.096Z,5.70
2022-08-28T23:44:08.728Z,6.07
2022-08-28T23:46:41.117Z,5.78
2022-08-28T23:49:10.770Z,6.10
2022-08-28T23:51:39.724Z,6.00
2022-08-28T23:54:09.352Z,5.93
2022-08-28T23:56:37.775Z,6.20
2022-08-28T23:59:06.952Z,6.70
